This is the latest recevied weather packets stored in our database for station/object N4OGP-WX. If no packets are shown the sender has not sent any weather packets the latest 10 day(s).
| Time | Temp. | Humidity | Pressure | Rain* | Wind** | Luminosity | Snow |
|---|---|---|---|---|---|---|---|
| 1777606700 | 22.22° C | 86% | 1009.7 hPa | 0 mm | - | - | - |
| 1777606641 | 22.22° C | 86% | 1009.7 hPa | 0 mm | - | - | - |
| 1777606580 | 23.89° C | 42% | 1020.4 hPa | 0 mm | - | - | - |
| 1777606520 | 23.89° C | 42% | 1020.4 hPa | 0 mm | - | - | - |
| 1777606430 | 23.89° C | 42% | 1020.4 hPa | 0 mm | - | - | - |
| 1777606370 | 22.22° C | 86% | 1009.8 hPa | 0 mm | - | - | - |
| 1777606311 | 23.89° C | 42% | 1020.4 hPa | 0 mm | - | - | - |
| 1777606250 | 22.22° C | 86% | 1009.8 hPa | 0 mm | - | - | - |
| 1777606161 | 23.89° C | 42% | 1020.4 hPa | 0 mm | - | - | - |
| 1777606101 | 23.89° C | 42% | 1020.4 hPa | 0 mm | - | - | - |
| 1777606010 | 22.78° C | 85% | 1009.8 hPa | 0 mm | - | - | - |
| 1777605921 | 23.89° C | 42% | 1020.4 hPa | 0 mm | - | - | - |
| 1777605831 | 23.89° C | 42% | 1020.4 hPa | 0 mm | - | - | - |
| 1777605771 | 22.78° C | 84% | 1009.8 hPa | 0 mm | - | - | - |
| 1777605711 | 23.89° C | 42% | 1020.4 hPa | 0 mm | - | - | - |
| 1777605650 | 22.78° C | 84% | 1009.9 hPa | 0 mm | - | - | - |
| 1777605560 | 22.78° C | 84% | 1009.9 hPa | 0 mm | - | - | - |
| 1777605500 | 22.78° C | 83% | 1009.9 hPa | 0 mm | - | - | - |
| 1777605440 | 23.89° C | 42% | 1020.4 hPa | 0 mm | - | - | - |
| 1777605380 | 22.78° C | 83% | 1009.9 hPa | 0 mm | - | - | - |
| 1777605290 | 22.78° C | 83% | 1009.9 hPa | 0 mm | - | - | - |
| 1777605200 | 23.89° C | 42% | 1020.4 hPa | 0 mm | - | - | - |
| 1777605110 | 23.89° C | 42% | 1020.4 hPa | 0 mm | - | - | - |
| 1777605051 | 22.78° C | 83% | 1009.9 hPa | 0 mm | - | - | - |
| 1777604990 | 23.33° C | 82% | 1009.9 hPa | 0 mm | - | - | - |
* Rain latest hour (hover to see other rain measurements)
** Current wind speed in m/s (hover to see current wind gust speed)